sensor_id;sensor_type;location;lat;lon;timestamp;temperature;humidity
45643;DHT22;31358;46.008;11.144;2024-03-22T00:01:11;11.90;98.10
45643;DHT22;31358;46.008;11.144;2024-03-22T00:03:36;12.00;97.80
45643;DHT22;31358;46.008;11.144;2024-03-22T00:06:02;11.80;98.10
45643;DHT22;31358;46.008;11.144;2024-03-22T00:08:28;11.70;98.20
45643;DHT22;31358;46.008;11.144;2024-03-22T00:10:53;11.80;97.90
45643;DHT22;31358;46.008;11.144;2024-03-22T00:13:19;12.20;97.60
45643;DHT22;31358;46.008;11.144;2024-03-22T00:15:44;12.30;97.50
45643;DHT22;31358;46.008;11.144;2024-03-22T00:18:11;12.20;97.60
45643;DHT22;31358;46.008;11.144;2024-03-22T00:20:36;12.10;97.60
45643;DHT22;31358;46.008;11.144;2024-03-22T00:23:02;12.00;97.60
45643;DHT22;31358;46.008;11.144;2024-03-22T00:25:28;11.80;97.90
45643;DHT22;31358;46.008;11.144;2024-03-22T00:27:55;11.60;98.00
45643;DHT22;31358;46.008;11.144;2024-03-22T00:30:20;11.60;98.10
45643;DHT22;31358;46.008;11.144;2024-03-22T00:32:46;11.60;98.00
45643;DHT22;31358;46.008;11.144;2024-03-22T00:35:12;11.60;97.90
45643;DHT22;31358;46.008;11.144;2024-03-22T00:37:38;11.60;98.20
45643;DHT22;31358;46.008;11.144;2024-03-22T00:40:04;11.70;98.00
45643;DHT22;31358;46.008;11.144;2024-03-22T00:42:30;11.60;98.00
45643;DHT22;31358;46.008;11.144;2024-03-22T00:44:55;11.50;98.00
45643;DHT22;31358;46.008;11.144;2024-03-22T00:47:23;11.40;98.20
45643;DHT22;31358;46.008;11.144;2024-03-22T00:49:48;11.20;98.00
45643;DHT22;31358;46.008;11.144;2024-03-22T00:52:14;11.40;98.00
45643;DHT22;31358;46.008;11.144;2024-03-22T00:54:39;11.50;98.00
45643;DHT22;31358;46.008;11.144;2024-03-22T00:57:06;11.20;98.00
45643;DHT22;31358;46.008;11.144;2024-03-22T00:59:32;11.00;98.50
45643;DHT22;31358;46.008;11.144;2024-03-22T01:01:58;10.90;98.60
45643;DHT22;31358;46.008;11.144;2024-03-22T01:04:23;10.90;98.50
45643;DHT22;31358;46.008;11.144;2024-03-22T01:06:49;11.10;98.40
45643;DHT22;31358;46.008;11.144;2024-03-22T01:09:15;11.30;98.10
45643;DHT22;31358;46.008;11.144;2024-03-22T01:11:40;11.50;97.80
45643;DHT22;31358;46.008;11.144;2024-03-22T01:14:06;11.50;97.90
45643;DHT22;31358;46.008;11.144;2024-03-22T01:16:32;11.30;98.10
45643;DHT22;31358;46.008;11.144;2024-03-22T01:18:57;11.30;97.90
45643;DHT22;31358;46.008;11.144;2024-03-22T01:21:23;11.10;98.00
45643;DHT22;31358;46.008;11.144;2024-03-22T01:23:54;11.30;97.80
45643;DHT22;31358;46.008;11.144;2024-03-22T01:26:19;11.50;97.40
45643;DHT22;31358;46.008;11.144;2024-03-22T01:28:46;11.60;97.40
45643;DHT22;31358;46.008;11.144;2024-03-22T01:31:12;11.40;97.60
45643;DHT22;31358;46.008;11.144;2024-03-22T01:33:37;11.30;97.70
45643;DHT22;31358;46.008;11.144;2024-03-22T01:36:03;11.20;97.80
45643;DHT22;31358;46.008;11.144;2024-03-22T01:38:30;11.70;97.70
45643;DHT22;31358;46.008;11.144;2024-03-22T01:40:56;11.70;97.40
45643;DHT22;31358;46.008;11.144;2024-03-22T01:43:22;11.60;97.60
45643;DHT22;31358;46.008;11.144;2024-03-22T01:45:47;11.60;97.50
45643;DHT22;31358;46.008;11.144;2024-03-22T01:48:13;11.60;97.60
45643;DHT22;31358;46.008;11.144;2024-03-22T01:50:39;11.50;97.60
45643;DHT22;31358;46.008;11.144;2024-03-22T01:53:05;11.50;97.90
45643;DHT22;31358;46.008;11.144;2024-03-22T01:55:31;11.50;97.70
45643;DHT22;31358;46.008;11.144;2024-03-22T01:57:56;11.60;97.40
45643;DHT22;31358;46.008;11.144;2024-03-22T02:00:22;11.50;97.30
45643;DHT22;31358;46.008;11.144;2024-03-22T02:02:48;11.50;97.40
45643;DHT22;31358;46.008;11.144;2024-03-22T02:05:14;11.30;98.30
45643;DHT22;31358;46.008;11.144;2024-03-22T02:07:41;11.00;99.00
45643;DHT22;31358;46.008;11.144;2024-03-22T02:10:08;11.00;99.10
45643;DHT22;31358;46.008;11.144;2024-03-22T02:12:36;10.80;98.40
45643;DHT22;31358;46.008;11.144;2024-03-22T02:15:02;11.30;97.80
45643;DHT22;31358;46.008;11.144;2024-03-22T02:17:28;11.10;97.80
45643;DHT22;31358;46.008;11.144;2024-03-22T02:19:54;10.90;98.00
45643;DHT22;31358;46.008;11.144;2024-03-22T02:22:19;10.90;98.50
45643;DHT22;31358;46.008;11.144;2024-03-22T02:24:45;10.90;98.90
45643;DHT22;31358;46.008;11.144;2024-03-22T02:27:10;10.90;99.10
45643;DHT22;31358;46.008;11.144;2024-03-22T02:29:36;10.70;99.30
45643;DHT22;31358;46.008;11.144;2024-03-22T02:32:01;10.50;99.60
45643;DHT22;31358;46.008;11.144;2024-03-22T02:34:28;10.40;99.60
45643;DHT22;31358;46.008;11.144;2024-03-22T02:36:54;10.30;99.30
45643;DHT22;31358;46.008;11.144;2024-03-22T02:39:20;10.30;99.60
45643;DHT22;31358;46.008;11.144;2024-03-22T02:41:45;10.20;99.90
45643;DHT22;31358;46.008;11.144;2024-03-22T02:44:11;10.30;99.80
45643;DHT22;31358;46.008;11.144;2024-03-22T02:46:36;10.20;99.90
45643;DHT22;31358;46.008;11.144;2024-03-22T02:49:02;10.10;99.90
45643;DHT22;31358;46.008;11.144;2024-03-22T02:51:27;10.00;99.90
45643;DHT22;31358;46.008;11.144;2024-03-22T02:53:53;10.00;99.90
45643;DHT22;31358;46.008;11.144;2024-03-22T02:56:18;9.90;99.90
45643;DHT22;31358;46.008;11.144;2024-03-22T02:58:44;9.80;99.90
45643;DHT22;31358;46.008;11.144;2024-03-22T03:01:10;9.90;99.90
45643;DHT22;31358;46.008;11.144;2024-03-22T03:03:35;10.00;99.90
45643;DHT22;31358;46.008;11.144;2024-03-22T03:06:01;10.20;99.90
45643;DHT22;31358;46.008;11.144;2024-03-22T03:08:26;10.40;99.90
45643;DHT22;31358;46.008;11.144;2024-03-22T03:10:53;10.30;99.90
45643;DHT22;31358;46.008;11.144;2024-03-22T03:13:18;10.40;99.90
45643;DHT22;31358;46.008;11.144;2024-03-22T03:15:44;10.30;99.90
45643;DHT22;31358;46.008;11.144;2024-03-22T03:18:09;10.30;99.90
45643;DHT22;31358;46.008;11.144;2024-03-22T03:20:35;10.30;99.90
45643;DHT22;31358;46.008;11.144;2024-03-22T03:23:00;10.20;99.90
45643;DHT22;31358;46.008;11.144;2024-03-22T03:25:27;10.10;99.90
45643;DHT22;31358;46.008;11.144;2024-03-22T03:27:52;10.20;99.90
45643;DHT22;31358;46.008;11.144;2024-03-22T03:30:18;10.10;99.90
45643;DHT22;31358;46.008;11.144;2024-03-22T03:32:43;10.00;99.90
45643;DHT22;31358;46.008;11.144;2024-03-22T03:35:09;10.20;99.90
45643;DHT22;31358;46.008;11.144;2024-03-22T03:37:34;10.20;99.90
45643;DHT22;31358;46.008;11.144;2024-03-22T03:40:00;10.00;99.90
45643;DHT22;31358;46.008;11.144;2024-03-22T03:42:26;10.10;99.90
45643;DHT22;31358;46.008;11.144;2024-03-22T03:44:51;10.20;99.90
45643;DHT22;31358;46.008;11.144;2024-03-22T03:47:17;10.20;99.90
45643;DHT22;31358;46.008;11.144;2024-03-22T03:49:45;10.20;99.90
45643;DHT22;31358;46.008;11.144;2024-03-22T03:52:11;10.20;99.90
45643;DHT22;31358;46.008;11.144;2024-03-22T03:54:36;10.20;99.90
45643;DHT22;31358;46.008;11.144;2024-03-22T03:57:02;10.00;99.90
45643;DHT22;31358;46.008;11.144;2024-03-22T03:59:28;10.00;99.90
45643;DHT22;31358;46.008;11.144;2024-03-22T04:01:54;9.80;99.90
45643;DHT22;31358;46.008;11.144;2024-03-22T04:04:19;9.70;99.90
45643;DHT22;31358;46.008;11.144;2024-03-22T04:06:45;9.70;99.90
45643;DHT22;31358;46.008;11.144;2024-03-22T04:09:10;9.60;99.90
45643;DHT22;31358;46.008;11.144;2024-03-22T04:11:36;9.50;99.90
45643;DHT22;31358;46.008;11.144;2024-03-22T04:14:03;9.50;99.90
45643;DHT22;31358;46.008;11.144;2024-03-22T04:16:28;9.50;99.90
45643;DHT22;31358;46.008;11.144;2024-03-22T04:18:54;9.40;99.90
45643;DHT22;31358;46.008;11.144;2024-03-22T04:21:20;9.50;99.90
45643;DHT22;31358;46.008;11.144;2024-03-22T04:23:45;9.60;99.90
45643;DHT22;31358;46.008;11.144;2024-03-22T04:26:11;9.80;99.90
45643;DHT22;31358;46.008;11.144;2024-03-22T04:28:37;9.90;99.90
45643;DHT22;31358;46.008;11.144;2024-03-22T04:31:05;9.90;99.90
45643;DHT22;31358;46.008;11.144;2024-03-22T04:33:32;10.00;99.90
45643;DHT22;31358;46.008;11.144;2024-03-22T04:35:58;9.80;99.90
45643;DHT22;31358;46.008;11.144;2024-03-22T04:38:25;9.80;99.90
45643;DHT22;31358;46.008;11.144;2024-03-22T04:40:51;9.50;99.90
45643;DHT22;31358;46.008;11.144;2024-03-22T04:43:17;9.40;99.90
45643;DHT22;31358;46.008;11.144;2024-03-22T04:45:43;9.40;99.90
45643;DHT22;31358;46.008;11.144;2024-03-22T04:48:08;9.40;99.90
45643;DHT22;31358;46.008;11.144;2024-03-22T04:50:34;9.40;99.90
45643;DHT22;31358;46.008;11.144;2024-03-22T04:53:01;9.30;99.90
45643;DHT22;31358;46.008;11.144;2024-03-22T04:55:26;9.30;99.90
45643;DHT22;31358;46.008;11.144;2024-03-22T04:57:52;9.10;99.90
45643;DHT22;31358;46.008;11.144;2024-03-22T05:00:18;9.30;99.90
45643;DHT22;31358;46.008;11.144;2024-03-22T05:02:44;9.30;99.90
45643;DHT22;31358;46.008;11.144;2024-03-22T05:05:09;9.30;99.90
45643;DHT22;31358;46.008;11.144;2024-03-22T05:07:35;9.30;99.90
45643;DHT22;31358;46.008;11.144;2024-03-22T05:10:01;9.20;99.90
45643;DHT22;31358;46.008;11.144;2024-03-22T05:12:27;9.10;99.90
45643;DHT22;31358;46.008;11.144;2024-03-22T05:14:53;9.00;99.90
45643;DHT22;31358;46.008;11.144;2024-03-22T05:17:18;9.00;99.90
45643;DHT22;31358;46.008;11.144;2024-03-22T05:19:44;9.20;99.90
45643;DHT22;31358;46.008;11.144;2024-03-22T05:22:09;9.30;99.90
45643;DHT22;31358;46.008;11.144;2024-03-22T05:24:35;9.40;99.90
45643;DHT22;31358;46.008;11.144;2024-03-22T05:27:00;9.10;99.90
45643;DHT22;31358;46.008;11.144;2024-03-22T05:29:26;8.90;99.90
45643;DHT22;31358;46.008;11.144;2024-03-22T05:31:52;9.20;99.90
45643;DHT22;31358;46.008;11.144;2024-03-22T05:34:18;9.30;99.90
45643;DHT22;31358;46.008;11.144;2024-03-22T05:36:45;9.20;99.90
45643;DHT22;31358;46.008;11.144;2024-03-22T05:39:11;9.30;99.90
45643;DHT22;31358;46.008;11.144;2024-03-22T05:41:38;9.30;99.90
45643;DHT22;31358;46.008;11.144;2024-03-22T05:44:04;9.30;99.90
45643;DHT22;31358;46.008;11.144;2024-03-22T05:46:30;9.50;99.90
45643;DHT22;31358;46.008;11.144;2024-03-22T05:48:57;9.40;99.90
45643;DHT22;31358;46.008;11.144;2024-03-22T05:51:22;9.40;99.90
45643;DHT22;31358;46.008;11.144;2024-03-22T05:53:48;9.40;99.90
45643;DHT22;31358;46.008;11.144;2024-03-22T05:56:14;9.40;99.90
45643;DHT22;31358;46.008;11.144;2024-03-22T05:58:39;9.10;99.90
45643;DHT22;31358;46.008;11.144;2024-03-22T06:01:05;9.10;99.90
45643;DHT22;31358;46.008;11.144;2024-03-22T06:03:31;9.10;99.90
45643;DHT22;31358;46.008;11.144;2024-03-22T06:05:59;9.10;99.90
45643;DHT22;31358;46.008;11.144;2024-03-22T06:08:26;9.20;99.90
45643;DHT22;31358;46.008;11.144;2024-03-22T06:10:53;9.10;99.90
45643;DHT22;31358;46.008;11.144;2024-03-22T06:13:18;9.10;99.90
45643;DHT22;31358;46.008;11.144;2024-03-22T06:15:44;9.00;99.90
45643;DHT22;31358;46.008;11.144;2024-03-22T06:18:12;8.80;99.90
45643;DHT22;31358;46.008;11.144;2024-03-22T06:20:38;8.80;99.90
45643;DHT22;31358;46.008;11.144;2024-03-22T06:23:04;8.90;99.90
45643;DHT22;31358;46.008;11.144;2024-03-22T06:25:29;8.90;99.90
45643;DHT22;31358;46.008;11.144;2024-03-22T06:27:55;8.90;99.90
45643;DHT22;31358;46.008;11.144;2024-03-22T06:30:20;8.80;99.90
45643;DHT22;31358;46.008;11.144;2024-03-22T06:32:46;8.80;99.90
45643;DHT22;31358;46.008;11.144;2024-03-22T06:35:12;8.90;99.90
45643;DHT22;31358;46.008;11.144;2024-03-22T06:37:39;8.90;99.90
45643;DHT22;31358;46.008;11.144;2024-03-22T06:40:06;9.10;99.90
45643;DHT22;31358;46.008;11.144;2024-03-22T06:42:32;9.20;99.90
45643;DHT22;31358;46.008;11.144;2024-03-22T06:44:58;9.30;99.90
45643;DHT22;31358;46.008;11.144;2024-03-22T06:47:23;9.40;99.90
45643;DHT22;31358;46.008;11.144;2024-03-22T06:49:49;9.60;99.90
45643;DHT22;31358;46.008;11.144;2024-03-22T06:52:15;9.80;99.90
45643;DHT22;31358;46.008;11.144;2024-03-22T06:54:41;9.70;99.90
45643;DHT22;31358;46.008;11.144;2024-03-22T06:57:06;9.70;99.90
45643;DHT22;31358;46.008;11.144;2024-03-22T06:59:32;9.70;99.90
45643;DHT22;31358;46.008;11.144;2024-03-22T07:01:57;9.80;99.90
45643;DHT22;31358;46.008;11.144;2024-03-22T07:04:23;9.80;99.90
45643;DHT22;31358;46.008;11.144;2024-03-22T07:06:49;9.90;99.90
45643;DHT22;31358;46.008;11.144;2024-03-22T07:09:14;9.90;99.90
45643;DHT22;31358;46.008;11.144;2024-03-22T07:11:40;9.90;99.90
45643;DHT22;31358;46.008;11.144;2024-03-22T07:14:06;9.90;99.90
45643;DHT22;31358;46.008;11.144;2024-03-22T07:16:32;9.90;99.90
45643;DHT22;31358;46.008;11.144;2024-03-22T07:18:57;9.80;99.90
45643;DHT22;31358;46.008;11.144;2024-03-22T07:21:23;9.90;99.90
45643;DHT22;31358;46.008;11.144;2024-03-22T07:23:49;9.90;99.90
45643;DHT22;31358;46.008;11.144;2024-03-22T07:26:14;9.90;99.90
45643;DHT22;31358;46.008;11.144;2024-03-22T07:28:40;9.90;99.90
45643;DHT22;31358;46.008;11.144;2024-03-22T07:31:05;10.00;99.90
45643;DHT22;31358;46.008;11.144;2024-03-22T07:33:31;10.20;99.90
45643;DHT22;31358;46.008;11.144;2024-03-22T07:36:02;10.20;99.90
45643;DHT22;31358;46.008;11.144;2024-03-22T07:38:27;10.30;99.90
45643;DHT22;31358;46.008;11.144;2024-03-22T07:40:53;10.40;99.90
45643;DHT22;31358;46.008;11.144;2024-03-22T07:43:19;10.50;99.90
45643;DHT22;31358;46.008;11.144;2024-03-22T07:45:44;10.60;99.90
45643;DHT22;31358;46.008;11.144;2024-03-22T07:48:10;10.70;99.90
45643;DHT22;31358;46.008;11.144;2024-03-22T07:50:36;10.70;99.90
45643;DHT22;31358;46.008;11.144;2024-03-22T07:53:02;10.60;99.90
45643;DHT22;31358;46.008;11.144;2024-03-22T07:55:27;10.60;99.90
45643;DHT22;31358;46.008;11.144;2024-03-22T07:57:53;10.60;99.90
45643;DHT22;31358;46.008;11.144;2024-03-22T08:00:19;10.60;99.90
45643;DHT22;31358;46.008;11.144;2024-03-22T08:02:44;10.70;99.90
45643;DHT22;31358;46.008;11.144;2024-03-22T08:05:10;10.80;99.80
45643;DHT22;31358;46.008;11.144;2024-03-22T08:07:36;10.90;99.40
45643;DHT22;31358;46.008;11.144;2024-03-22T08:10:01;11.00;99.40
45643;DHT22;31358;46.008;11.144;2024-03-22T08:12:28;11.10;99.10
45643;DHT22;31358;46.008;11.144;2024-03-22T08:14:53;11.10;99.30
45643;DHT22;31358;46.008;11.144;2024-03-22T08:17:19;11.10;99.90
45643;DHT22;31358;46.008;11.144;2024-03-22T08:19:45;11.20;99.70
45643;DHT22;31358;46.008;11.144;2024-03-22T08:22:11;11.30;99.60
45643;DHT22;31358;46.008;11.144;2024-03-22T08:24:36;11.30;99.70
45643;DHT22;31358;46.008;11.144;2024-03-22T08:27:03;11.40;99.50
45643;DHT22;31358;46.008;11.144;2024-03-22T08:29:29;11.40;99.00
45643;DHT22;31358;46.008;11.144;2024-03-22T08:31:54;11.50;98.70
45643;DHT22;31358;46.008;11.144;2024-03-22T08:34:21;11.40;98.70
45643;DHT22;31358;46.008;11.144;2024-03-22T08:36:47;11.50;98.40
45643;DHT22;31358;46.008;11.144;2024-03-22T08:39:12;11.60;98.40
45643;DHT22;31358;46.008;11.144;2024-03-22T08:41:38;11.70;98.80
45643;DHT22;31358;46.008;11.144;2024-03-22T08:44:03;11.70;99.10
45643;DHT22;31358;46.008;11.144;2024-03-22T08:46:29;11.80;98.90
45643;DHT22;31358;46.008;11.144;2024-03-22T08:48:56;11.80;98.70
45643;DHT22;31358;46.008;11.144;2024-03-22T08:51:22;11.90;99.10
45643;DHT22;31358;46.008;11.144;2024-03-22T08:53:48;12.00;98.30
45643;DHT22;31358;46.008;11.144;2024-03-22T08:56:13;12.10;98.90
45643;DHT22;31358;46.008;11.144;2024-03-22T08:58:39;12.10;99.10
45643;DHT22;31358;46.008;11.144;2024-03-22T09:01:05;12.10;98.50
45643;DHT22;31358;46.008;11.144;2024-03-22T09:03:31;12.30;98.90
45643;DHT22;31358;46.008;11.144;2024-03-22T09:05:57;12.40;98.50
45643;DHT22;31358;46.008;11.144;2024-03-22T09:08:23;12.40;98.90
45643;DHT22;31358;46.008;11.144;2024-03-22T09:10:49;12.40;98.20
45643;DHT22;31358;46.008;11.144;2024-03-22T09:13:14;12.40;98.20
45643;DHT22;31358;46.008;11.144;2024-03-22T09:15:40;12.40;98.60
45643;DHT22;31358;46.008;11.144;2024-03-22T09:18:06;12.50;98.90
45643;DHT22;31358;46.008;11.144;2024-03-22T09:20:32;12.60;98.70
45643;DHT22;31358;46.008;11.144;2024-03-22T09:22:57;12.70;98.50
45643;DHT22;31358;46.008;11.144;2024-03-22T09:25:27;14.40;97.30
45643;DHT22;31358;46.008;11.144;2024-03-22T09:27:52;18.00;93.70
45643;DHT22;31358;46.008;11.144;2024-03-22T09:30:18;19.70;92.70
45643;DHT22;31358;46.008;11.144;2024-03-22T09:32:44;20.60;91.30
45643;DHT22;31358;46.008;11.144;2024-03-22T09:35:10;20.60;89.00
45643;DHT22;31358;46.008;11.144;2024-03-22T09:37:37;20.40;88.20
45643;DHT22;31358;46.008;11.144;2024-03-22T09:40:02;18.40;89.40
45643;DHT22;31358;46.008;11.144;2024-03-22T09:42:33;17.20;90.70
45643;DHT22;31358;46.008;11.144;2024-03-22T09:45:02;15.90;91.60
45643;DHT22;31358;46.008;11.144;2024-03-22T09:47:28;15.40;93.30
45643;DHT22;31358;46.008;11.144;2024-03-22T09:49:55;15.10;93.30
45643;DHT22;31358;46.008;11.144;2024-03-22T09:52:22;15.30;93.70
45643;DHT22;31358;46.008;11.144;2024-03-22T09:54:48;15.20;93.70
45643;DHT22;31358;46.008;11.144;2024-03-22T09:57:14;15.10;94.20
45643;DHT22;31358;46.008;11.144;2024-03-22T09:59:44;14.90;94.10
45643;DHT22;31358;46.008;11.144;2024-03-22T10:02:11;14.80;94.20
45643;DHT22;31358;46.008;11.144;2024-03-22T10:04:40;14.90;93.90
45643;DHT22;31358;46.008;11.144;2024-03-22T10:07:06;14.90;93.50
45643;DHT22;31358;46.008;11.144;2024-03-22T10:09:33;14.80;93.10
45643;DHT22;31358;46.008;11.144;2024-03-22T10:11:59;14.90;93.70
45643;DHT22;31358;46.008;11.144;2024-03-22T10:14:25;14.90;93.50
45643;DHT22;31358;46.008;11.144;2024-03-22T10:16:51;15.00;93.40
45643;DHT22;31358;46.008;11.144;2024-03-22T10:19:20;15.20;94.20
45643;DHT22;31358;46.008;11.144;2024-03-22T10:21:47;15.30;93.60
45643;DHT22;31358;46.008;11.144;2024-03-22T10:24:14;15.30;93.20
45643;DHT22;31358;46.008;11.144;2024-03-22T10:26:40;15.30;92.90
45643;DHT22;31358;46.008;11.144;2024-03-22T10:29:06;15.20;93.30
45643;DHT22;31358;46.008;11.144;2024-03-22T10:31:33;15.50;94.00
45643;DHT22;31358;46.008;11.144;2024-03-22T10:34:02;15.50;92.70
45643;DHT22;31358;46.008;11.144;2024-03-22T10:36:29;15.50;92.30
45643;DHT22;31358;46.008;11.144;2024-03-22T10:38:57;15.70;92.10
45643;DHT22;31358;46.008;11.144;2024-03-22T10:41:24;15.90;92.40
45643;DHT22;31358;46.008;11.144;2024-03-22T10:43:50;16.00;92.10
45643;DHT22;31358;46.008;11.144;2024-03-22T10:46:16;16.00;92.00
45643;DHT22;31358;46.008;11.144;2024-03-22T10:48:45;16.10;92.50
45643;DHT22;31358;46.008;11.144;2024-03-22T10:51:12;16.30;92.00
45643;DHT22;31358;46.008;11.144;2024-03-22T10:53:39;16.40;92.50
45643;DHT22;31358;46.008;11.144;2024-03-22T10:56:06;16.30;91.50
45643;DHT22;31358;46.008;11.144;2024-03-22T10:58:33;16.50;92.20
45643;DHT22;31358;46.008;11.144;2024-03-22T11:00:59;16.60;91.10
45643;DHT22;31358;46.008;11.144;2024-03-22T11:03:26;16.90;92.10
45643;DHT22;31358;46.008;11.144;2024-03-22T11:05:55;17.00;91.50
45643;DHT22;31358;46.008;11.144;2024-03-22T11:08:28;17.00;91.80
45643;DHT22;31358;46.008;11.144;2024-03-22T11:10:56;17.10;91.40
45643;DHT22;31358;46.008;11.144;2024-03-22T11:13:21;17.40;90.30
45643;DHT22;31358;46.008;11.144;2024-03-22T11:15:51;17.40;90.80
45643;DHT22;31358;46.008;11.144;2024-03-22T11:18:17;17.10;90.80
45643;DHT22;31358;46.008;11.144;2024-03-22T11:20:43;17.50;90.20
45643;DHT22;31358;46.008;11.144;2024-03-22T11:23:10;17.30;90.00
45643;DHT22;31358;46.008;11.144;2024-03-22T11:25:36;17.40;89.50
45643;DHT22;31358;46.008;11.144;2024-03-22T11:28:02;17.50;90.30
45643;DHT22;31358;46.008;11.144;2024-03-22T11:30:29;17.50;90.30
45643;DHT22;31358;46.008;11.144;2024-03-22T11:32:55;17.70;90.90
45643;DHT22;31358;46.008;11.144;2024-03-22T11:35:21;18.00;89.70
45643;DHT22;31358;46.008;11.144;2024-03-22T11:37:47;18.00;88.30
45643;DHT22;31358;46.008;11.144;2024-03-22T11:40:14;18.00;88.80
45643;DHT22;31358;46.008;11.144;2024-03-22T11:42:41;18.10;90.20
45643;DHT22;31358;46.008;11.144;2024-03-22T11:45:10;17.90;88.00
45643;DHT22;31358;46.008;11.144;2024-03-22T11:47:36;17.80;87.50
45643;DHT22;31358;46.008;11.144;2024-03-22T11:50:02;18.20;88.90
45643;DHT22;31358;46.008;11.144;2024-03-22T11:52:29;18.30;87.70
45643;DHT22;31358;46.008;11.144;2024-03-22T11:54:55;18.20;90.00
45643;DHT22;31358;46.008;11.144;2024-03-22T11:57:21;18.20;88.50
45643;DHT22;31358;46.008;11.144;2024-03-22T11:59:47;18.20;90.20
45643;DHT22;31358;46.008;11.144;2024-03-22T12:02:13;18.20;87.10
45643;DHT22;31358;46.008;11.144;2024-03-22T12:04:47;18.30;88.90
45643;DHT22;31358;46.008;11.144;2024-03-22T12:07:14;18.40;88.00
45643;DHT22;31358;46.008;11.144;2024-03-22T12:09:41;18.50;85.90
45643;DHT22;31358;46.008;11.144;2024-03-22T12:12:08;18.70;86.20
45643;DHT22;31358;46.008;11.144;2024-03-22T12:14:35;18.70;84.90
45643;DHT22;31358;46.008;11.144;2024-03-22T12:17:02;18.60;81.50
45643;DHT22;31358;46.008;11.144;2024-03-22T12:19:27;18.70;82.00
45643;DHT22;31358;46.008;11.144;2024-03-22T12:21:53;18.80;82.30
45643;DHT22;31358;46.008;11.144;2024-03-22T12:24:19;19.00;82.30
45643;DHT22;31358;46.008;11.144;2024-03-22T12:26:44;19.00;81.10
45643;DHT22;31358;46.008;11.144;2024-03-22T12:29:12;19.10;82.30
45643;DHT22;31358;46.008;11.144;2024-03-22T12:31:38;19.20;81.40
45643;DHT22;31358;46.008;11.144;2024-03-22T12:34:04;19.10;80.00
45643;DHT22;31358;46.008;11.144;2024-03-22T12:36:29;19.20;79.70
45643;DHT22;31358;46.008;11.144;2024-03-22T12:38:55;19.20;81.90
45643;DHT22;31358;46.008;11.144;2024-03-22T12:41:21;19.20;79.50
45643;DHT22;31358;46.008;11.144;2024-03-22T12:43:46;19.00;81.00
45643;DHT22;31358;46.008;11.144;2024-03-22T12:46:12;19.20;81.00
45643;DHT22;31358;46.008;11.144;2024-03-22T12:48:37;19.20;83.00
45643;DHT22;31358;46.008;11.144;2024-03-22T12:51:03;19.50;82.70
45643;DHT22;31358;46.008;11.144;2024-03-22T12:53:29;19.50;83.20
45643;DHT22;31358;46.008;11.144;2024-03-22T12:55:54;19.50;80.70
45643;DHT22;31358;46.008;11.144;2024-03-22T12:58:20;19.30;80.50
45643;DHT22;31358;46.008;11.144;2024-03-22T13:00:47;19.30;81.60
45643;DHT22;31358;46.008;11.144;2024-03-22T13:03:13;19.40;80.00
45643;DHT22;31358;46.008;11.144;2024-03-22T13:05:40;19.70;80.30
45643;DHT22;31358;46.008;11.144;2024-03-22T13:08:06;19.70;81.20
45643;DHT22;31358;46.008;11.144;2024-03-22T13:10:31;19.80;82.00
45643;DHT22;31358;46.008;11.144;2024-03-22T13:12:57;20.10;82.60
45643;DHT22;31358;46.008;11.144;2024-03-22T13:15:23;20.30;80.70
45643;DHT22;31358;46.008;11.144;2024-03-22T13:17:49;20.60;80.90
45643;DHT22;31358;46.008;11.144;2024-03-22T13:20:14;20.50;80.20
45643;DHT22;31358;46.008;11.144;2024-03-22T13:22:40;20.30;77.70
45643;DHT22;31358;46.008;11.144;2024-03-22T13:25:06;20.50;77.60
45643;DHT22;31358;46.008;11.144;2024-03-22T13:27:34;20.40;77.70
45643;DHT22;31358;46.008;11.144;2024-03-22T13:30:00;20.60;80.40
45643;DHT22;31358;46.008;11.144;2024-03-22T13:32:26;20.80;79.00
45643;DHT22;31358;46.008;11.144;2024-03-22T13:34:52;20.70;77.20
45643;DHT22;31358;46.008;11.144;2024-03-22T13:37:18;20.80;78.00
45643;DHT22;31358;46.008;11.144;2024-03-22T13:39:48;20.80;77.00
45643;DHT22;31358;46.008;11.144;2024-03-22T13:42:14;20.70;76.80
45643;DHT22;31358;46.008;11.144;2024-03-22T13:44:39;20.70;77.20
45643;DHT22;31358;46.008;11.144;2024-03-22T13:47:05;20.70;76.70
45643;DHT22;31358;46.008;11.144;2024-03-22T13:49:30;20.70;77.30
45643;DHT22;31358;46.008;11.144;2024-03-22T13:51:58;20.80;76.50
45643;DHT22;31358;46.008;11.144;2024-03-22T13:54:24;20.80;78.00
45643;DHT22;31358;46.008;11.144;2024-03-22T13:56:50;20.90;76.90
45643;DHT22;31358;46.008;11.144;2024-03-22T13:59:16;20.90;76.60
45643;DHT22;31358;46.008;11.144;2024-03-22T14:01:42;21.00;77.00
45643;DHT22;31358;46.008;11.144;2024-03-22T14:04:10;20.90;75.30
45643;DHT22;31358;46.008;11.144;2024-03-22T14:06:37;21.10;75.40
45643;DHT22;31358;46.008;11.144;2024-03-22T14:09:03;21.10;74.40
45643;DHT22;31358;46.008;11.144;2024-03-22T14:11:30;21.20;74.50
45643;DHT22;31358;46.008;11.144;2024-03-22T14:13:59;21.20;74.20
45643;DHT22;31358;46.008;11.144;2024-03-22T14:16:25;21.10;74.90
45643;DHT22;31358;46.008;11.144;2024-03-22T14:18:51;21.10;74.90
45643;DHT22;31358;46.008;11.144;2024-03-22T14:21:17;21.20;76.30
45643;DHT22;31358;46.008;11.144;2024-03-22T14:23:47;21.30;74.70
45643;DHT22;31358;46.008;11.144;2024-03-22T14:26:12;21.30;76.20
45643;DHT22;31358;46.008;11.144;2024-03-22T14:28:38;21.40;77.50
45643;DHT22;31358;46.008;11.144;2024-03-22T14:31:06;21.40;75.70
45643;DHT22;31358;46.008;11.144;2024-03-22T14:33:37;21.30;74.90
45643;DHT22;31358;46.008;11.144;2024-03-22T14:36:03;21.40;76.40
45643;DHT22;31358;46.008;11.144;2024-03-22T14:38:29;21.40;75.20
45643;DHT22;31358;46.008;11.144;2024-03-22T14:40:55;21.30;76.10
45643;DHT22;31358;46.008;11.144;2024-03-22T14:43:25;21.30;75.20
45643;DHT22;31358;46.008;11.144;2024-03-22T14:45:54;21.10;75.30
45643;DHT22;31358;46.008;11.144;2024-03-22T14:48:23;20.90;74.50
45643;DHT22;31358;46.008;11.144;2024-03-22T14:50:50;20.90;75.90
45643;DHT22;31358;46.008;11.144;2024-03-22T14:53:16;21.00;75.70
45643;DHT22;31358;46.008;11.144;2024-03-22T14:55:53;20.90;75.00
45643;DHT22;31358;46.008;11.144;2024-03-22T14:58:20;21.00;77.00
45643;DHT22;31358;46.008;11.144;2024-03-22T15:01:03;20.90;76.90
45643;DHT22;31358;46.008;11.144;2024-03-22T15:03:29;20.90;78.20
45643;DHT22;31358;46.008;11.144;2024-03-22T15:05:55;20.70;76.80
45643;DHT22;31358;46.008;11.144;2024-03-22T15:08:22;20.80;76.70
45643;DHT22;31358;46.008;11.144;2024-03-22T15:10:48;20.70;77.10
45643;DHT22;31358;46.008;11.144;2024-03-22T15:13:15;20.60;77.80